Ryazhsk, Russia
Current Conditions -  °F | °C
As of 4:30 PM on Sunday 23 Nov 2014 (Local Time) from UUDD Reporting Station
Broken Clouds Broken Clouds  
Wind Chill: 21°   Ceiling: 20000
Heat Index: 28°   Visibility: 5mi
Dew Point: 25°   Wind: 7mph
Humidity: 86%   Direction: 40°NE
Pressure: 30.5"   Gusts: NA
Location:  53.71°N, 40.07°E
Report Text: UUDD 231330Z 04003MPS 8000 BKN200 M02/M04 Q1033 3229009582290095 NOSIG
Loading
Personal Weather Stations






























Interactive Weather Map New forecast layout! Learn more

10-Day Weather Forecast

Advertisements
Track Severe Weather on mobile